sensor_id;sensor_type;location;lat;lon;timestamp;pressure;altitude;pressure_sealevel;temperature;humidity
21988;BME280;11158;53.404;-1.510;2023-02-19T00:01:19;100837.59;;;13.77;55.73
21988;BME280;11158;53.404;-1.510;2023-02-19T00:03:50;100842.59;;;13.58;56.12
21988;BME280;11158;53.404;-1.510;2023-02-19T00:06:18;100840.94;;;13.86;55.19
21988;BME280;11158;53.404;-1.510;2023-02-19T00:08:44;100841.16;;;12.83;57.99
21988;BME280;11158;53.404;-1.510;2023-02-19T00:11:16;100845.19;;;13.73;55.29
21988;BME280;11158;53.404;-1.510;2023-02-19T00:13:44;100839.03;;;13.79;55.40
21988;BME280;11158;53.404;-1.510;2023-02-19T00:18:41;100848.91;;;14.00;54.84
21988;BME280;11158;53.404;-1.510;2023-02-19T00:21:06;100851.94;;;13.91;55.22
21988;BME280;11158;53.404;-1.510;2023-02-19T00:23:32;100859.09;;;13.34;56.85
21988;BME280;11158;53.404;-1.510;2023-02-19T00:26:09;100854.28;;;13.72;56.08
21988;BME280;11158;53.404;-1.510;2023-02-19T00:28:35;100860.97;;;13.83;55.91
21988;BME280;11158;53.404;-1.510;2023-02-19T00:31:06;100854.84;;;13.25;57.27
21988;BME280;11158;53.404;-1.510;2023-02-19T00:33:32;100865.69;;;13.31;57.38
21988;BME280;11158;53.404;-1.510;2023-02-19T00:36:03;100878.53;;;13.79;56.39
21988;BME280;11158;53.404;-1.510;2023-02-19T00:38:29;100880.72;;;13.97;55.89
21988;BME280;11158;53.404;-1.510;2023-02-19T00:40:57;100900.78;;;14.22;54.83
21988;BME280;11158;53.404;-1.510;2023-02-19T00:43:23;100890.78;;;13.88;55.25
21988;BME280;11158;53.404;-1.510;2023-02-19T00:45:48;100904.88;;;13.69;55.59
21988;BME280;11158;53.404;-1.510;2023-02-19T00:48:14;100894.00;;;13.55;56.14
21988;BME280;11158;53.404;-1.510;2023-02-19T00:50:40;100886.38;;;13.37;55.73
21988;BME280;11158;53.404;-1.510;2023-02-19T00:53:05;100881.84;;;13.38;55.45
21988;BME280;11158;53.404;-1.510;2023-02-19T00:55:31;100871.56;;;13.41;55.61
21988;BME280;11158;53.404;-1.510;2023-02-19T00:57:56;100869.94;;;12.74;56.62
21988;BME280;11158;53.404;-1.510;2023-02-19T01:00:22;100872.09;;;13.15;56.25
21988;BME280;11158;53.404;-1.510;2023-02-19T01:02:48;100862.34;;;13.14;55.40
21988;BME280;11158;53.404;-1.510;2023-02-19T01:05:13;100878.94;;;13.82;54.09
21988;BME280;11158;53.404;-1.510;2023-02-19T01:07:39;100878.47;;;13.29;55.31
21988;BME280;11158;53.404;-1.510;2023-02-19T01:10:04;100891.50;;;12.81;57.17
21988;BME280;11158;53.404;-1.510;2023-02-19T01:12:31;100889.31;;;13.06;55.88
21988;BME280;11158;53.404;-1.510;2023-02-19T01:14:57;100893.09;;;13.70;54.67
21988;BME280;11158;53.404;-1.510;2023-02-19T01:17:23;100906.91;;;12.94;56.07
21988;BME280;11158;53.404;-1.510;2023-02-19T01:19:48;100911.31;;;13.16;55.11
21988;BME280;11158;53.404;-1.510;2023-02-19T01:22:14;100908.50;;;13.82;53.67
21988;BME280;11158;53.404;-1.510;2023-02-19T01:24:39;100918.47;;;13.67;53.51
21988;BME280;11158;53.404;-1.510;2023-02-19T01:27:05;100917.53;;;13.75;54.15
21988;BME280;11158;53.404;-1.510;2023-02-19T01:29:31;100926.19;;;13.70;54.38
21988;BME280;11158;53.404;-1.510;2023-02-19T01:31:56;100937.34;;;13.52;55.01
21988;BME280;11158;53.404;-1.510;2023-02-19T01:34:22;100956.53;;;12.15;58.57
21988;BME280;11158;53.404;-1.510;2023-02-19T01:36:48;100964.81;;;11.83;58.95
21988;BME280;11158;53.404;-1.510;2023-02-19T01:39:13;100980.13;;;11.97;58.23
21988;BME280;11158;53.404;-1.510;2023-02-19T01:41:40;100992.44;;;11.83;58.07
21988;BME280;11158;53.404;-1.510;2023-02-19T01:46:42;101011.28;;;12.21;55.98
21988;BME280;11158;53.404;-1.510;2023-02-19T01:49:16;101017.53;;;12.51;54.83
21988;BME280;11158;53.404;-1.510;2023-02-19T01:54:25;101024.25;;;11.55;55.03
21988;BME280;11158;53.404;-1.510;2023-02-19T01:56:53;101031.88;;;11.27;54.87
21988;BME280;11158;53.404;-1.510;2023-02-19T01:59:20;101043.06;;;11.39;54.10
21988;BME280;11158;53.404;-1.510;2023-02-19T02:01:46;101036.69;;;11.40;54.19
21988;BME280;11158;53.404;-1.510;2023-02-19T02:04:13;101034.38;;;11.28;54.37
21988;BME280;11158;53.404;-1.510;2023-02-19T02:06:49;101025.66;;;11.66;53.59
21988;BME280;11158;53.404;-1.510;2023-02-19T02:09:17;101026.59;;;11.10;55.34
21988;BME280;11158;53.404;-1.510;2023-02-19T02:12:02;101027.91;;;11.23;54.62
21988;BME280;11158;53.404;-1.510;2023-02-19T02:14:29;101028.41;;;11.58;54.49
21988;BME280;11158;53.404;-1.510;2023-02-19T02:23:01;101007.66;;;10.73;55.86
21988;BME280;11158;53.404;-1.510;2023-02-19T02:28:29;100991.13;;;10.61;56.87
21988;BME280;11158;53.404;-1.510;2023-02-19T02:31:07;100994.19;;;11.05;55.34
21988;BME280;11158;53.404;-1.510;2023-02-19T02:36:33;101019.13;;;11.45;54.71
21988;BME280;11158;53.404;-1.510;2023-02-19T02:39:01;101039.47;;;11.55;54.69
21988;BME280;11158;53.404;-1.510;2023-02-19T02:41:31;101046.34;;;11.09;55.16
21988;BME280;11158;53.404;-1.510;2023-02-19T02:43:57;101058.22;;;11.07;54.42
21988;BME280;11158;53.404;-1.510;2023-02-19T02:46:28;101068.09;;;11.06;54.54
21988;BME280;11158;53.404;-1.510;2023-02-19T02:49:04;101073.47;;;10.90;54.92
21988;BME280;11158;53.404;-1.510;2023-02-19T02:51:33;101081.84;;;10.46;54.94
21988;BME280;11158;53.404;-1.510;2023-02-19T02:56:55;101086.81;;;10.98;53.81
21988;BME280;11158;53.404;-1.510;2023-02-19T02:59:24;101104.47;;;11.32;52.83
21988;BME280;11158;53.404;-1.510;2023-02-19T03:01:55;101111.06;;;11.05;53.35
21988;BME280;11158;53.404;-1.510;2023-02-19T03:08:04;101114.72;;;11.04;54.06
21988;BME280;11158;53.404;-1.510;2023-02-19T03:10:52;101112.66;;;11.30;53.01
21988;BME280;11158;53.404;-1.510;2023-02-19T03:13:29;101124.84;;;11.41;53.05
21988;BME280;11158;53.404;-1.510;2023-02-19T03:16:35;101127.19;;;10.05;55.45
21988;BME280;11158;53.404;-1.510;2023-02-19T03:19:24;101121.69;;;9.56;56.63
21988;BME280;11158;53.404;-1.510;2023-02-19T03:21:59;101139.50;;;9.47;56.53
21988;BME280;11158;53.404;-1.510;2023-02-19T03:24:29;101151.41;;;9.61;56.24
21988;BME280;11158;53.404;-1.510;2023-02-19T03:27:16;101158.31;;;9.80;55.52
21988;BME280;11158;53.404;-1.510;2023-02-19T03:29:43;101149.94;;;10.17;54.83
21988;BME280;11158;53.404;-1.510;2023-02-19T03:32:14;101170.69;;;9.89;55.33
21988;BME280;11158;53.404;-1.510;2023-02-19T03:34:53;101175.78;;;10.09;54.91
21988;BME280;11158;53.404;-1.510;2023-02-19T03:40:25;101162.88;;;9.88;55.65
21988;BME280;11158;53.404;-1.510;2023-02-19T03:43:12;101177.50;;;9.75;56.04
21988;BME280;11158;53.404;-1.510;2023-02-19T03:45:57;101185.56;;;10.34;54.38
21988;BME280;11158;53.404;-1.510;2023-02-19T03:48:32;101190.13;;;10.50;54.11
21988;BME280;11158;53.404;-1.510;2023-02-19T03:56:36;101213.31;;;10.41;54.67
21988;BME280;11158;53.404;-1.510;2023-02-19T03:59:15;101215.53;;;10.12;55.64
21988;BME280;11158;53.404;-1.510;2023-02-19T04:02:05;101216.47;;;9.94;56.01
21988;BME280;11158;53.404;-1.510;2023-02-19T04:04:42;101220.75;;;9.87;56.33
21988;BME280;11158;53.404;-1.510;2023-02-19T04:07:10;101226.63;;;9.91;56.28
21988;BME280;11158;53.404;-1.510;2023-02-19T04:09:39;101230.72;;;10.45;54.95
21988;BME280;11158;53.404;-1.510;2023-02-19T04:12:06;101229.72;;;10.12;55.50
21988;BME280;11158;53.404;-1.510;2023-02-19T04:14:57;101229.31;;;9.91;55.89
21988;BME280;11158;53.404;-1.510;2023-02-19T04:17:35;101224.56;;;10.19;54.97
21988;BME280;11158;53.404;-1.510;2023-02-19T04:20:05;101236.47;;;10.24;54.86
21988;BME280;11158;53.404;-1.510;2023-02-19T04:22:33;101230.44;;;10.22;54.82
21988;BME280;11158;53.404;-1.510;2023-02-19T04:24:59;101240.19;;;9.97;55.66
21988;BME280;11158;53.404;-1.510;2023-02-19T04:27:25;101250.34;;;9.94;55.58
21988;BME280;11158;53.404;-1.510;2023-02-19T04:29:51;101253.47;;;10.15;54.47
21988;BME280;11158;53.404;-1.510;2023-02-19T04:32:16;101269.31;;;10.17;53.99
21988;BME280;11158;53.404;-1.510;2023-02-19T04:34:42;101271.00;;;10.26;53.75
21988;BME280;11158;53.404;-1.510;2023-02-19T04:37:08;101286.03;;;10.53;53.29
21988;BME280;11158;53.404;-1.510;2023-02-19T04:39:33;101294.91;;;10.19;53.38
21988;BME280;11158;53.404;-1.510;2023-02-19T04:41:59;101300.34;;;10.44;53.09
21988;BME280;11158;53.404;-1.510;2023-02-19T04:44:24;101292.53;;;10.42;52.77
21988;BME280;11158;53.404;-1.510;2023-02-19T04:46:50;101284.06;;;10.72;52.22
21988;BME280;11158;53.404;-1.510;2023-02-19T04:49:16;101284.44;;;10.85;51.96
21988;BME280;11158;53.404;-1.510;2023-02-19T04:51:41;101285.00;;;10.46;52.70
21988;BME280;11158;53.404;-1.510;2023-02-19T04:54:07;101288.75;;;10.27;53.38
21988;BME280;11158;53.404;-1.510;2023-02-19T04:56:33;101294.56;;;10.22;53.53
21988;BME280;11158;53.404;-1.510;2023-02-19T04:58:58;101315.38;;;10.11;53.63
21988;BME280;11158;53.404;-1.510;2023-02-19T05:01:24;101320.25;;;10.15;53.24
21988;BME280;11158;53.404;-1.510;2023-02-19T05:03:51;101323.56;;;10.09;53.36
21988;BME280;11158;53.404;-1.510;2023-02-19T05:06:17;101318.47;;;10.24;53.11
21988;BME280;11158;53.404;-1.510;2023-02-19T05:08:42;101334.38;;;10.07;53.59
21988;BME280;11158;53.404;-1.510;2023-02-19T05:11:10;101322.13;;;9.71;54.73
21988;BME280;11158;53.404;-1.510;2023-02-19T05:13:36;101314.66;;;9.74;54.70
21988;BME280;11158;53.404;-1.510;2023-02-19T05:16:11;101326.00;;;9.94;54.30
21988;BME280;11158;53.404;-1.510;2023-02-19T05:18:41;101308.03;;;10.39;52.93
21988;BME280;11158;53.404;-1.510;2023-02-19T05:21:09;101322.66;;;10.26;52.88
21988;BME280;11158;53.404;-1.510;2023-02-19T05:23:35;101328.44;;;9.88;53.39
21988;BME280;11158;53.404;-1.510;2023-02-19T05:26:05;101342.41;;;10.07;53.52
21988;BME280;11158;53.404;-1.510;2023-02-19T05:28:31;101338.47;;;9.94;53.37
21988;BME280;11158;53.404;-1.510;2023-02-19T05:30:56;101348.28;;;10.11;52.89
21988;BME280;11158;53.404;-1.510;2023-02-19T05:33:24;101355.84;;;10.50;52.13
21988;BME280;11158;53.404;-1.510;2023-02-19T05:35:52;101355.50;;;10.45;51.80
21988;BME280;11158;53.404;-1.510;2023-02-19T05:38:18;101358.38;;;10.25;52.41
21988;BME280;11158;53.404;-1.510;2023-02-19T05:40:45;101350.09;;;9.84;53.51
21988;BME280;11158;53.404;-1.510;2023-02-19T05:43:11;101366.81;;;9.86;53.47
21988;BME280;11158;53.404;-1.510;2023-02-19T05:45:38;101350.75;;;9.78;53.43
21988;BME280;11158;53.404;-1.510;2023-02-19T05:48:04;101367.31;;;10.08;52.65
21988;BME280;11158;53.404;-1.510;2023-02-19T05:50:32;101355.25;;;10.04;52.86
21988;BME280;11158;53.404;-1.510;2023-02-19T05:53:03;101356.44;;;9.83;53.03
21988;BME280;11158;53.404;-1.510;2023-02-19T05:55:33;101364.50;;;9.65;53.74
21988;BME280;11158;53.404;-1.510;2023-02-19T05:58:00;101357.25;;;9.76;53.72
21988;BME280;11158;53.404;-1.510;2023-02-19T06:00:26;101355.97;;;9.88;53.41
21988;BME280;11158;53.404;-1.510;2023-02-19T06:02:52;101351.91;;;10.02;52.85
21988;BME280;11158;53.404;-1.510;2023-02-19T06:05:18;101359.38;;;10.24;51.95
21988;BME280;11158;53.404;-1.510;2023-02-19T06:07:44;101365.50;;;9.91;53.07
21988;BME280;11158;53.404;-1.510;2023-02-19T06:10:10;101369.56;;;9.95;53.24
21988;BME280;11158;53.404;-1.510;2023-02-19T06:12:37;101360.63;;;10.73;50.84
21988;BME280;11158;53.404;-1.510;2023-02-19T06:15:04;101365.50;;;10.77;50.52
21988;BME280;11158;53.404;-1.510;2023-02-19T06:17:31;101374.00;;;10.81;50.87
21988;BME280;11158;53.404;-1.510;2023-02-19T06:19:57;101373.50;;;11.52;49.01
21988;BME280;11158;53.404;-1.510;2023-02-19T06:22:23;101371.97;;;11.58;48.69
21988;BME280;11158;53.404;-1.510;2023-02-19T06:24:48;101389.88;;;11.25;49.72
21988;BME280;11158;53.404;-1.510;2023-02-19T06:27:14;101397.06;;;11.82;47.90
21988;BME280;11158;53.404;-1.510;2023-02-19T06:29:40;101405.28;;;11.56;48.62
21988;BME280;11158;53.404;-1.510;2023-02-19T06:32:05;101414.97;;;11.32;49.08
21988;BME280;11158;53.404;-1.510;2023-02-19T06:34:32;101420.31;;;11.40;49.26
21988;BME280;11158;53.404;-1.510;2023-02-19T06:36:58;101423.19;;;11.71;48.56
21988;BME280;11158;53.404;-1.510;2023-02-19T06:39:24;101424.88;;;12.13;47.46
21988;BME280;11158;53.404;-1.510;2023-02-19T06:41:50;101429.72;;;11.85;47.80
21988;BME280;11158;53.404;-1.510;2023-02-19T06:44:16;101431.56;;;11.77;48.00
21988;BME280;11158;53.404;-1.510;2023-02-19T06:46:41;101406.50;;;11.94;47.53
21988;BME280;11158;53.404;-1.510;2023-02-19T06:49:07;101423.31;;;11.21;49.36
21988;BME280;11158;53.404;-1.510;2023-02-19T06:51:33;101457.84;;;11.06;49.76
21988;BME280;11158;53.404;-1.510;2023-02-19T06:53:59;101460.34;;;10.99;50.43
21988;BME280;11158;53.404;-1.510;2023-02-19T06:58:57;101437.41;;;10.88;50.43
21988;BME280;11158;53.404;-1.510;2023-02-19T07:01:27;101437.59;;;10.95;50.37
21988;BME280;11158;53.404;-1.510;2023-02-19T07:03:53;101434.69;;;11.31;49.16
21988;BME280;11158;53.404;-1.510;2023-02-19T07:06:21;101439.34;;;11.21;49.04
21988;BME280;11158;53.404;-1.510;2023-02-19T07:08:47;101433.91;;;11.55;48.25
21988;BME280;11158;53.404;-1.510;2023-02-19T07:11:13;101428.31;;;11.16;48.99
21988;BME280;11158;53.404;-1.510;2023-02-19T07:13:39;101432.41;;;10.94;49.98
21988;BME280;11158;53.404;-1.510;2023-02-19T07:16:07;101416.91;;;11.05;49.54
21988;BME280;11158;53.404;-1.510;2023-02-19T07:18:33;101435.56;;;10.89;49.54
21988;BME280;11158;53.404;-1.510;2023-02-19T07:21:08;101443.81;;;10.69;50.55
21988;BME280;11158;53.404;-1.510;2023-02-19T07:23:34;101437.81;;;10.15;51.85
21988;BME280;11158;53.404;-1.510;2023-02-19T07:26:01;101426.22;;;9.62;54.04
21988;BME280;11158;53.404;-1.510;2023-02-19T07:28:27;101419.34;;;10.04;52.86
21988;BME280;11158;53.404;-1.510;2023-02-19T07:30:53;101420.84;;;10.24;51.67
21988;BME280;11158;53.404;-1.510;2023-02-19T07:33:19;101426.38;;;10.05;51.75
21988;BME280;11158;53.404;-1.510;2023-02-19T07:35:48;101430.94;;;10.65;50.46
21988;BME280;11158;53.404;-1.510;2023-02-19T07:38:19;101436.09;;;10.32;50.66
21988;BME280;11158;53.404;-1.510;2023-02-19T07:43:17;101436.78;;;10.34;50.78
21988;BME280;11158;53.404;-1.510;2023-02-19T07:45:43;101460.84;;;10.34;50.82
21988;BME280;11158;53.404;-1.510;2023-02-19T07:48:09;101470.25;;;10.02;51.39
21988;BME280;11158;53.404;-1.510;2023-02-19T07:50:35;101475.13;;;10.07;51.76
21988;BME280;11158;53.404;-1.510;2023-02-19T07:53:00;101483.09;;;9.63;52.67
21988;BME280;11158;53.404;-1.510;2023-02-19T07:55:26;101488.59;;;9.97;52.05
21988;BME280;11158;53.404;-1.510;2023-02-19T07:57:51;101499.47;;;10.66;50.31
21988;BME280;11158;53.404;-1.510;2023-02-19T08:00:17;101499.81;;;10.63;49.84
21988;BME280;11158;53.404;-1.510;2023-02-19T08:02:45;101506.69;;;10.74;49.75
21988;BME280;11158;53.404;-1.510;2023-02-19T08:07:52;101537.41;;;11.30;48.72
21988;BME280;11158;53.404;-1.510;2023-02-19T08:10:18;101516.41;;;11.68;47.40
21988;BME280;11158;53.404;-1.510;2023-02-19T08:13:03;101516.19;;;12.04;46.32
21988;BME280;11158;53.404;-1.510;2023-02-19T08:15:45;101517.00;;;12.04;46.06
21988;BME280;11158;53.404;-1.510;2023-02-19T08:18:11;101529.81;;;11.60;47.21
21988;BME280;11158;53.404;-1.510;2023-02-19T08:20:37;101511.31;;;11.99;46.87
21988;BME280;11158;53.404;-1.510;2023-02-19T08:23:03;101497.97;;;12.79;45.34
21988;BME280;11158;53.404;-1.510;2023-02-19T08:25:29;101487.38;;;12.94;44.65
21988;BME280;11158;53.404;-1.510;2023-02-19T08:27:54;101487.38;;;12.94;44.92
21988;BME280;11158;53.404;-1.510;2023-02-19T08:30:20;101474.94;;;12.38;46.28
21988;BME280;11158;53.404;-1.510;2023-02-19T08:32:46;101473.06;;;11.64;47.73
21988;BME280;11158;53.404;-1.510;2023-02-19T08:35:11;101478.00;;;12.10;47.08
21988;BME280;11158;53.404;-1.510;2023-02-19T08:37:37;101489.38;;;12.12;47.17
21988;BME280;11158;53.404;-1.510;2023-02-19T08:40:03;101481.78;;;12.56;45.80
21988;BME280;11158;53.404;-1.510;2023-02-19T08:42:28;101467.94;;;12.28;45.95
21988;BME280;11158;53.404;-1.510;2023-02-19T08:44:54;101481.66;;;12.25;46.39
21988;BME280;11158;53.404;-1.510;2023-02-19T08:47:20;101482.63;;;11.67;48.35
21988;BME280;11158;53.404;-1.510;2023-02-19T08:49:47;101466.16;;;11.37;50.06
21988;BME280;11158;53.404;-1.510;2023-02-19T08:52:13;101455.22;;;11.14;50.52
21988;BME280;11158;53.404;-1.510;2023-02-19T08:54:38;101463.41;;;10.44;52.28
21988;BME280;11158;53.404;-1.510;2023-02-19T08:57:04;101473.81;;;10.47;52.91
21988;BME280;11158;53.404;-1.510;2023-02-19T08:59:30;101471.41;;;11.04;51.78
21988;BME280;11158;53.404;-1.510;2023-02-19T09:01:59;101477.56;;;10.97;51.69
21988;BME280;11158;53.404;-1.510;2023-02-19T09:04:25;101484.03;;;11.28;51.57
21988;BME280;11158;53.404;-1.510;2023-02-19T09:06:50;101504.44;;;10.87;52.38
21988;BME280;11158;53.404;-1.510;2023-02-19T09:09:16;101516.63;;;11.16;51.77
21988;BME280;11158;53.404;-1.510;2023-02-19T09:11:42;101488.97;;;11.66;50.73
21988;BME280;11158;53.404;-1.510;2023-02-19T09:14:07;101483.03;;;11.29;51.30
21988;BME280;11158;53.404;-1.510;2023-02-19T09:16:34;101491.00;;;11.64;50.67
21988;BME280;11158;53.404;-1.510;2023-02-19T09:18:59;101500.31;;;10.93;52.52
21988;BME280;11158;53.404;-1.510;2023-02-19T09:21:25;101492.31;;;11.60;51.14
21988;BME280;11158;53.404;-1.510;2023-02-19T09:23:50;101504.41;;;11.21;52.14
21988;BME280;11158;53.404;-1.510;2023-02-19T09:26:16;101498.38;;;11.78;49.86
21988;BME280;11158;53.404;-1.510;2023-02-19T09:28:42;101502.72;;;11.79;50.26
21988;BME280;11158;53.404;-1.510;2023-02-19T09:31:10;101498.50;;;11.60;50.33
21988;BME280;11158;53.404;-1.510;2023-02-19T09:33:37;101512.53;;;11.46;51.20
21988;BME280;11158;53.404;-1.510;2023-02-19T09:36:03;101499.75;;;12.40;49.27
21988;BME280;11158;53.404;-1.510;2023-02-19T09:38:28;101504.44;;;12.38;49.25
21988;BME280;11158;53.404;-1.510;2023-02-19T09:40:58;101504.41;;;12.54;48.32
21988;BME280;11158;53.404;-1.510;2023-02-19T09:43:31;101486.38;;;12.15;50.04
21988;BME280;11158;53.404;-1.510;2023-02-19T09:46:03;101498.34;;;11.70;50.67
21988;BME280;11158;53.404;-1.510;2023-02-19T09:48:33;101473.13;;;12.13;49.05
21988;BME280;11158;53.404;-1.510;2023-02-19T09:51:00;101470.22;;;12.48;48.02
21988;BME280;11158;53.404;-1.510;2023-02-19T09:53:32;101482.31;;;12.27;49.24
21988;BME280;11158;53.404;-1.510;2023-02-19T09:56:00;101485.69;;;11.88;49.73
21988;BME280;11158;53.404;-1.510;2023-02-19T09:58:29;101486.88;;;12.19;49.17
21988;BME280;11158;53.404;-1.510;2023-02-19T10:00:57;101482.03;;;12.14;49.32
21988;BME280;11158;53.404;-1.510;2023-02-19T10:03:33;101482.66;;;12.00;50.09
21988;BME280;11158;53.404;-1.510;2023-02-19T10:06:21;101482.63;;;11.67;51.39
21988;BME280;11158;53.404;-1.510;2023-02-19T10:08:51;101471.84;;;11.42;51.75
21988;BME280;11158;53.404;-1.510;2023-02-19T10:11:18;101490.38;;;11.94;51.21
21988;BME280;11158;53.404;-1.510;2023-02-19T10:13:53;101482.97;;;11.64;52.01
21988;BME280;11158;53.404;-1.510;2023-02-19T10:16:26;101487.13;;;11.07;52.28
21988;BME280;11158;53.404;-1.510;2023-02-19T10:18:53;101501.22;;;11.77;51.00
21988;BME280;11158;53.404;-1.510;2023-02-19T10:21:24;101500.66;;;11.06;53.17
21988;BME280;11158;53.404;-1.510;2023-02-19T10:23:55;101496.31;;;10.71;53.56
21988;BME280;11158;53.404;-1.510;2023-02-19T10:26:22;101500.16;;;11.02;52.93
21988;BME280;11158;53.404;-1.510;2023-02-19T10:28:48;101489.53;;;11.27;52.66
21988;BME280;11158;53.404;-1.510;2023-02-19T10:31:19;101486.19;;;12.08;50.68
21988;BME280;11158;53.404;-1.510;2023-02-19T10:33:54;101487.16;;;11.66;51.26
21988;BME280;11158;53.404;-1.510;2023-02-19T10:36:33;101479.63;;;11.78;51.10
21988;BME280;11158;53.404;-1.510;2023-02-19T10:39:01;101489.88;;;11.91;50.83
21988;BME280;11158;53.404;-1.510;2023-02-19T10:41:27;101482.84;;;12.14;49.85
21988;BME280;11158;53.404;-1.510;2023-02-19T10:44:16;101487.69;;;12.35;49.74
21988;BME280;11158;53.404;-1.510;2023-02-19T10:46:45;101487.72;;;12.03;50.84
21988;BME280;11158;53.404;-1.510;2023-02-19T10:49:38;101475.63;;;11.82;50.61
21988;BME280;11158;53.404;-1.510;2023-02-19T10:54:43;101477.19;;;11.34;52.18
21988;BME280;11158;53.404;-1.510;2023-02-19T10:59:57;101478.72;;;10.34;55.09
21988;BME280;11158;53.404;-1.510;2023-02-19T11:02:26;101487.97;;;10.74;54.22
21988;BME280;11158;53.404;-1.510;2023-02-19T11:07:30;101482.31;;;11.19;54.06
21988;BME280;11158;53.404;-1.510;2023-02-19T11:09:55;101477.31;;;12.16;51.74
21988;BME280;11158;53.404;-1.510;2023-02-19T11:12:25;101470.94;;;11.92;51.65
21988;BME280;11158;53.404;-1.510;2023-02-19T11:14:52;101463.22;;;11.81;52.62
21988;BME280;11158;53.404;-1.510;2023-02-19T11:17:24;101467.69;;;11.48;53.00
21988;BME280;11158;53.404;-1.510;2023-02-19T11:19:58;101477.84;;;11.28;54.18
21988;BME280;11158;53.404;-1.510;2023-02-19T11:24:50;101486.34;;;11.90;52.50
21988;BME280;11158;53.404;-1.510;2023-02-19T11:27:19;101486.34;;;12.07;52.11
21988;BME280;11158;53.404;-1.510;2023-02-19T11:29:45;101489.97;;;12.63;51.45
21988;BME280;11158;53.404;-1.510;2023-02-19T11:32:25;101483.19;;;12.20;52.03
21988;BME280;11158;53.404;-1.510;2023-02-19T11:35:03;101494.38;;;11.82;52.98
21988;BME280;11158;53.404;-1.510;2023-02-19T11:37:52;101497.53;;;11.69;54.14
21988;BME280;11158;53.404;-1.510;2023-02-19T11:40:21;101499.41;;;12.18;52.50
21988;BME280;11158;53.404;-1.510;2023-02-19T11:42:57;101501.78;;;11.97;53.49
21988;BME280;11158;53.404;-1.510;2023-02-19T11:45:58;101503.47;;;12.94;51.07
21988;BME280;11158;53.404;-1.510;2023-02-19T11:56:35;101472.84;;;12.72;51.20
21988;BME280;11158;53.404;-1.510;2023-02-19T11:59:04;101476.28;;;12.33;52.32
21988;BME280;11158;53.404;-1.510;2023-02-19T12:21:27;101484.00;;;12.20;53.61
21988;BME280;11158;53.404;-1.510;2023-02-19T12:23:58;101479.78;;;12.50;52.67
21988;BME280;11158;53.404;-1.510;2023-02-19T12:26:46;101471.66;;;13.23;50.55
21988;BME280;11158;53.404;-1.510;2023-02-19T12:34:34;101483.91;;;14.40;47.96
21988;BME280;11158;53.404;-1.510;2023-02-19T12:42:02;101489.25;;;14.78;46.70
21988;BME280;11158;53.404;-1.510;2023-02-19T12:44:41;101486.69;;;14.47;47.56
21988;BME280;11158;53.404;-1.510;2023-02-19T12:47:16;101484.34;;;14.29;48.62
21988;BME280;11158;53.404;-1.510;2023-02-19T12:49:50;101483.69;;;14.80;46.88
21988;BME280;11158;53.404;-1.510;2023-02-19T12:52:21;101486.97;;;15.26;46.57
21988;BME280;11158;53.404;-1.510;2023-02-19T12:54:54;101492.63;;;15.32;45.96
21988;BME280;11158;53.404;-1.510;2023-02-19T12:57:32;101483.22;;;14.76;46.83
21988;BME280;11158;53.404;-1.510;2023-02-19T13:00:12;101485.16;;;14.15;48.24
21988;BME280;11158;53.404;-1.510;2023-02-19T13:03:15;101482.66;;;14.13;48.44
21988;BME280;11158;53.404;-1.510;2023-02-19T13:06:21;101461.72;;;14.23;48.22
21988;BME280;11158;53.404;-1.510;2023-02-19T13:08:45;101449.72;;;14.64;46.79
21988;BME280;11158;53.404;-1.510;2023-02-19T13:11:22;101442.31;;;14.66;46.73
21988;BME280;11158;53.404;-1.510;2023-02-19T13:13:59;101440.13;;;14.46;47.54
21988;BME280;11158;53.404;-1.510;2023-02-19T13:16:28;101442.34;;;14.28;47.75
21988;BME280;11158;53.404;-1.510;2023-02-19T13:19:02;101436.75;;;14.15;48.40
21988;BME280;11158;53.404;-1.510;2023-02-19T13:21:35;101433.50;;;14.04;48.93
21988;BME280;11158;53.404;-1.510;2023-02-19T13:24:29;101426.03;;;13.14;50.10
21988;BME280;11158;53.404;-1.510;2023-02-19T13:33:20;101425.91;;;13.47;50.02
21988;BME280;11158;53.404;-1.510;2023-02-19T13:36:10;101432.88;;;13.56;50.07
21988;BME280;11158;53.404;-1.510;2023-02-19T13:38:45;101409.78;;;13.16;50.91
21988;BME280;11158;53.404;-1.510;2023-02-19T13:41:30;101391.59;;;13.95;49.01
21988;BME280;11158;53.404;-1.510;2023-02-19T13:43:59;101376.31;;;14.85;46.69
21988;BME280;11158;53.404;-1.510;2023-02-19T13:46:33;101387.19;;;13.79;47.91
21988;BME280;11158;53.404;-1.510;2023-02-19T13:49:23;101374.78;;;13.32;48.69
21988;BME280;11158;53.404;-1.510;2023-02-19T13:51:51;101390.94;;;12.93;50.43
21988;BME280;11158;53.404;-1.510;2023-02-19T13:54:23;101387.97;;;13.88;48.91
21988;BME280;11158;53.404;-1.510;2023-02-19T13:57:24;101366.13;;;14.51;47.03
21988;BME280;11158;53.404;-1.510;2023-02-19T13:59:57;101358.41;;;13.65;48.63
21988;BME280;11158;53.404;-1.510;2023-02-19T14:02:27;101362.38;;;13.31;49.61
21988;BME280;11158;53.404;-1.510;2023-02-19T14:05:04;101364.09;;;13.70;49.03
21988;BME280;11158;53.404;-1.510;2023-02-19T14:07:50;101364.25;;;13.69;48.87
21988;BME280;11158;53.404;-1.510;2023-02-19T14:10:56;101364.53;;;14.27;47.59
21988;BME280;11158;53.404;-1.510;2023-02-19T14:19:03;101352.09;;;15.71;44.29
21988;BME280;11158;53.404;-1.510;2023-02-19T14:21:39;101356.22;;;15.45;44.20
21988;BME280;11158;53.404;-1.510;2023-02-19T14:24:10;101365.53;;;14.40;46.90
21988;BME280;11158;53.404;-1.510;2023-02-19T14:26:37;101366.75;;;15.40;45.08
21988;BME280;11158;53.404;-1.510;2023-02-19T14:29:06;101367.97;;;15.38;44.18
21988;BME280;11158;53.404;-1.510;2023-02-19T14:31:35;101363.72;;;15.28;44.98
21988;BME280;11158;53.404;-1.510;2023-02-19T14:34:05;101366.13;;;15.02;45.14
21988;BME280;11158;53.404;-1.510;2023-02-19T14:36:41;101367.56;;;14.09;47.50
21988;BME280;11158;53.404;-1.510;2023-02-19T14:39:28;101359.53;;;14.23;47.00